createdAt,value
2018-02-19T00:00:12.563Z,25.92
2018-02-19T00:00:44.172Z,25.02
2018-02-19T00:01:15.798Z,26.33
2018-02-19T00:01:47.440Z,25.83
2018-02-19T00:02:19.097Z,25.17
2018-02-19T00:02:50.749Z,24.08
2018-02-19T00:03:22.389Z,26.83
2018-02-19T00:03:54.010Z,23.98
2018-02-19T00:04:25.644Z,25.95
2018-02-19T00:04:57.247Z,25.30
2018-02-19T00:05:28.863Z,27.65
2018-02-19T00:06:00.482Z,26.10
2018-02-19T00:06:32.104Z,24.80
2018-02-19T00:07:04.028Z,25.58
2018-02-19T00:07:35.721Z,27.13
2018-02-19T00:08:07.702Z,25.88
2018-02-19T00:08:39.349Z,26.65
2018-02-19T00:09:10.975Z,27.13
2018-02-19T00:09:42.729Z,26.17
2018-02-19T00:10:14.361Z,26.52
2018-02-19T00:10:45.991Z,26.00
2018-02-19T00:11:17.684Z,27.00
2018-02-19T00:11:49.325Z,26.48
2018-02-19T00:12:21.198Z,24.92
2018-02-19T00:12:52.836Z,26.17
2018-02-19T00:13:24.470Z,26.10
2018-02-19T00:13:56.118Z,26.55
2018-02-19T00:14:27.753Z,26.58
2018-02-19T00:14:59.359Z,25.62
2018-02-19T00:15:30.983Z,25.95
2018-02-19T00:16:02.601Z,25.30
2018-02-19T00:16:34.235Z,26.05
2018-02-19T00:17:05.919Z,25.73
2018-02-19T00:17:37.543Z,25.92
2018-02-19T00:18:09.161Z,25.20
2018-02-19T00:18:40.795Z,27.23
2018-02-19T00:19:12.421Z,26.90
2018-02-19T00:19:44.045Z,27.25
2018-02-19T00:20:15.674Z,26.50
2018-02-19T00:20:47.301Z,27.00
2018-02-19T00:21:18.926Z,26.55
2018-02-19T00:21:50.561Z,25.00
2018-02-19T00:22:22.193Z,26.02
2018-02-19T00:22:53.839Z,26.50
2018-02-19T00:23:25.498Z,25.58
2018-02-19T00:23:57.177Z,25.58
2018-02-19T00:24:28.813Z,26.02
2018-02-19T00:25:00.450Z,25.20
2018-02-19T00:25:32.075Z,26.60
2018-02-19T00:26:03.709Z,27.37
2018-02-19T00:26:35.399Z,26.60
2018-02-19T00:27:07.023Z,27.55
2018-02-19T00:27:38.677Z,25.17
2018-02-19T00:28:10.298Z,24.35
2018-02-19T00:28:41.921Z,26.05
2018-02-19T00:29:13.566Z,25.85
2018-02-19T00:29:45.189Z,26.90
2018-02-19T00:30:16.818Z,25.85
2018-02-19T00:30:48.464Z,25.48
2018-02-19T00:31:20.085Z,24.58
2018-02-19T00:31:51.723Z,27.25
2018-02-19T00:32:23.355Z,25.67
2018-02-19T00:32:55.000Z,25.20
2018-02-19T00:33:26.643Z,26.48
2018-02-19T00:33:58.276Z,27.15
2018-02-19T00:34:29.889Z,26.15
2018-02-19T00:35:01.528Z,25.58
2018-02-19T00:35:33.164Z,27.23
2018-02-19T00:36:04.811Z,26.27
2018-02-19T00:36:36.413Z,25.98
2018-02-19T00:37:08.045Z,25.70
2018-02-19T00:37:39.672Z,25.45
2018-02-19T00:38:11.295Z,25.50
2018-02-19T00:38:42.920Z,24.73
2018-02-19T00:39:14.555Z,25.15
2018-02-19T00:39:46.171Z,25.45
2018-02-19T00:40:17.817Z,27.27
2018-02-19T00:40:49.441Z,25.15
2018-02-19T00:41:21.071Z,25.92
2018-02-19T00:41:52.715Z,26.95
2018-02-19T00:42:24.333Z,26.08
2018-02-19T00:42:55.979Z,25.35
2018-02-19T00:43:27.637Z,26.55
2018-02-19T00:43:59.273Z,26.83
2018-02-19T00:44:30.885Z,28.50
2018-02-19T00:45:02.525Z,27.98
2018-02-19T00:45:34.168Z,26.65
2018-02-19T00:46:05.796Z,26.58
2018-02-19T00:46:37.454Z,28.80
2018-02-19T00:47:09.074Z,28.08
2018-02-19T00:47:40.711Z,28.42
2018-02-19T00:48:12.327Z,26.90
2018-02-19T00:48:43.965Z,27.77
2018-02-19T00:49:15.577Z,27.13
2018-02-19T00:49:47.215Z,28.30
2018-02-19T00:50:18.862Z,27.27
2018-02-19T00:50:50.527Z,27.33
2018-02-19T00:51:22.216Z,27.95
2018-02-19T00:51:53.849Z,26.02
2018-02-19T00:52:25.461Z,28.02
2018-02-19T00:52:57.085Z,27.17
2018-02-19T00:53:28.709Z,28.55
2018-02-19T00:54:00.315Z,27.42
2018-02-19T00:54:31.921Z,28.35
2018-02-19T00:55:03.597Z,27.75
2018-02-19T00:55:35.223Z,28.42
2018-02-19T00:56:06.855Z,28.38
2018-02-19T00:56:38.467Z,27.83
2018-02-19T00:57:10.083Z,28.42
2018-02-19T00:57:41.720Z,28.08
2018-02-19T00:58:13.364Z,26.92
2018-02-19T00:58:44.984Z,29.87
2018-02-19T00:59:16.651Z,28.80
2018-02-19T00:59:48.263Z,27.42
2018-02-19T01:00:19.963Z,29.20
2018-02-19T01:00:51.617Z,28.92
2018-02-19T01:01:23.236Z,29.58
2018-02-19T01:01:54.885Z,28.25
2018-02-19T01:02:26.513Z,28.10
2018-02-19T01:02:58.151Z,26.73
2018-02-19T01:03:29.777Z,28.15
2018-02-19T01:04:01.452Z,28.62
2018-02-19T01:04:33.094Z,28.90
2018-02-19T01:05:04.719Z,27.02
2018-02-19T01:05:36.339Z,30.05
2018-02-19T01:06:07.971Z,29.80
2018-02-19T01:06:39.601Z,27.67
2018-02-19T01:07:11.241Z,27.40
2018-02-19T01:07:42.909Z,27.77
2018-02-19T01:08:14.576Z,28.77
2018-02-19T01:08:46.214Z,28.08
2018-02-19T01:09:17.817Z,28.50
2018-02-19T01:09:49.457Z,28.12
2018-02-19T01:10:21.092Z,26.45
2018-02-19T01:10:52.698Z,26.90
2018-02-19T01:11:24.350Z,26.98
2018-02-19T01:11:56.009Z,27.60
2018-02-19T01:12:27.649Z,28.60
2018-02-19T01:12:59.268Z,28.67
2018-02-19T01:13:30.908Z,27.45
2018-02-19T01:14:02.553Z,28.40
2018-02-19T01:14:34.178Z,28.83
2018-02-19T01:15:05.807Z,27.25
2018-02-19T01:15:37.425Z,29.50
2018-02-19T01:16:09.049Z,27.50
2018-02-19T01:16:40.698Z,28.45
2018-02-19T01:17:12.338Z,28.38
2018-02-19T01:17:43.977Z,28.77
2018-02-19T01:18:15.607Z,28.38
2018-02-19T01:18:47.227Z,27.00
2018-02-19T01:19:18.863Z,27.13
2018-02-19T01:19:50.480Z,29.67
2018-02-19T01:20:22.125Z,29.63
2018-02-19T01:20:53.756Z,30.73
2018-02-19T01:21:25.377Z,30.83
2018-02-19T01:21:57.011Z,29.87
2018-02-19T01:22:28.665Z,28.83
2018-02-19T01:23:00.309Z,29.92
2018-02-19T01:23:31.945Z,29.92
2018-02-19T01:24:03.571Z,29.27
2018-02-19T01:24:35.205Z,28.10
2018-02-19T01:25:06.851Z,28.58
2018-02-19T01:25:38.483Z,28.65
2018-02-19T01:26:10.093Z,28.73
2018-02-19T01:26:41.699Z,29.58
2018-02-19T01:27:13.317Z,28.23
2018-02-19T01:27:44.961Z,28.60
2018-02-19T01:28:16.607Z,28.33
2018-02-19T01:28:48.224Z,27.75
2018-02-19T01:29:19.857Z,28.10
2018-02-19T01:29:51.483Z,28.25
2018-02-19T01:30:23.109Z,26.92
2018-02-19T01:30:54.744Z,28.20
2018-02-19T01:31:26.349Z,27.37
2018-02-19T01:31:58.005Z,28.23
2018-02-19T01:32:29.637Z,29.37
2018-02-19T01:33:01.289Z,28.33
2018-02-19T01:33:32.914Z,29.02
2018-02-19T01:34:04.533Z,29.00
2018-02-19T01:34:36.155Z,28.00
2018-02-19T01:35:07.805Z,28.33
2018-02-19T01:35:39.435Z,28.65
2018-02-19T01:36:11.081Z,28.52
2018-02-19T01:36:43.045Z,27.95
2018-02-19T01:37:14.667Z,28.58
2018-02-19T01:37:46.293Z,29.87
2018-02-19T01:38:17.957Z,27.08
2018-02-19T01:38:49.592Z,27.45
2018-02-19T01:39:21.221Z,27.55
2018-02-19T01:39:52.868Z,29.33
2018-02-19T01:40:24.502Z,27.83
2018-02-19T01:40:56.127Z,29.85
2018-02-19T01:41:27.754Z,28.98
2018-02-19T01:41:59.387Z,29.92
2018-02-19T01:42:31.003Z,30.48
2018-02-19T01:43:02.613Z,28.73
2018-02-19T01:43:34.255Z,29.45
2018-02-19T01:44:05.876Z,29.15
2018-02-19T01:44:37.521Z,29.60
2018-02-19T01:45:09.172Z,30.08
2018-02-19T01:45:40.800Z,30.37
2018-02-19T01:46:12.431Z,29.23
2018-02-19T01:46:44.102Z,29.90
2018-02-19T01:47:15.708Z,29.80
2018-02-19T01:47:47.351Z,29.20
2018-02-19T01:48:18.974Z,30.20
2018-02-19T01:48:50.609Z,31.12
2018-02-19T01:49:22.239Z,30.65
2018-02-19T01:50:12.501Z,31.42
2018-02-19T01:50:44.133Z,31.17
2018-02-19T01:51:15.781Z,30.58
2018-02-19T01:51:47.425Z,29.65
2018-02-19T01:52:19.039Z,30.85
2018-02-19T01:52:50.677Z,32.00
2018-02-19T01:53:22.297Z,30.73
2018-02-19T01:53:53.925Z,30.17
2018-02-19T01:54:25.587Z,30.98
2018-02-19T01:54:57.213Z,32.22
2018-02-19T01:55:28.847Z,31.35
2018-02-19T01:56:00.479Z,31.08
2018-02-19T01:56:32.097Z,29.70
2018-02-19T01:57:03.718Z,30.05
2018-02-19T01:57:35.362Z,29.30
2018-02-19T01:58:06.996Z,30.92
2018-02-19T01:58:38.609Z,31.02
2018-02-19T01:59:10.295Z,30.52
2018-02-19T01:59:41.945Z,30.50
2018-02-19T02:00:13.569Z,31.37
2018-02-19T02:00:45.225Z,32.70
2018-02-19T02:01:16.857Z,30.55
2018-02-19T02:01:48.483Z,31.33
2018-02-19T02:02:20.123Z,30.67
2018-02-19T02:02:51.734Z,30.40
2018-02-19T02:03:23.361Z,31.65
2018-02-19T02:03:54.988Z,30.12
2018-02-19T02:04:26.621Z,30.70
2018-02-19T02:04:58.253Z,31.17
2018-02-19T02:05:29.859Z,30.90
2018-02-19T02:06:01.503Z,32.50
2018-02-19T02:06:33.146Z,30.80
2018-02-19T02:07:04.789Z,30.00
2018-02-19T02:07:36.602Z,30.62
2018-02-19T02:08:08.241Z,31.45
2018-02-19T02:08:39.881Z,31.23
2018-02-19T02:09:11.490Z,30.40
2018-02-19T02:09:43.147Z,30.12
2018-02-19T02:10:14.803Z,30.27
2018-02-19T02:10:46.439Z,29.58
2018-02-19T02:11:18.095Z,29.98
2018-02-19T02:11:49.727Z,29.23
2018-02-19T02:12:21.347Z,29.42
2018-02-19T02:12:52.979Z,29.87
2018-02-19T02:13:24.609Z,30.73
2018-02-19T02:13:56.217Z,30.15
2018-02-19T02:14:27.862Z,30.00
2018-02-19T02:14:59.497Z,31.58
2018-02-19T02:15:31.136Z,30.55
2018-02-19T02:16:02.810Z,30.33
2018-02-19T02:16:34.426Z,29.23
2018-02-19T02:17:06.045Z,27.25
2018-02-19T02:17:37.687Z,29.45
2018-02-19T02:18:09.338Z,30.27
2018-02-19T02:18:41.003Z,28.92
2018-02-19T02:19:12.639Z,27.98
2018-02-19T02:19:44.299Z,28.15
2018-02-19T02:20:15.955Z,31.30
2018-02-19T02:20:47.585Z,29.75
2018-02-19T02:21:19.241Z,28.85
2018-02-19T02:21:50.876Z,28.80
2018-02-19T02:22:22.518Z,29.20
2018-02-19T02:22:54.141Z,28.62
2018-02-19T02:23:25.771Z,28.75
2018-02-19T02:23:57.405Z,28.12
2018-02-19T02:24:29.448Z,28.58
2018-02-19T02:25:01.079Z,29.45
2018-02-19T02:25:32.734Z,29.15
2018-02-19T02:26:04.397Z,30.10
2018-02-19T02:26:36.045Z,29.25
2018-02-19T02:27:07.687Z,28.80
2018-02-19T02:27:39.349Z,29.35
2018-02-19T02:28:10.965Z,29.80
2018-02-19T02:28:42.597Z,27.67
2018-02-19T02:29:14.211Z,29.83
2018-02-19T02:29:45.837Z,29.27
2018-02-19T02:30:17.457Z,27.05
2018-02-19T02:30:49.203Z,29.40
2018-02-19T02:31:20.910Z,29.92
2018-02-19T02:31:52.525Z,29.73
2018-02-19T02:32:24.145Z,28.92
2018-02-19T02:32:55.753Z,30.88
2018-02-19T02:33:27.384Z,29.98
2018-02-19T02:33:58.994Z,28.30
2018-02-19T02:34:30.623Z,29.80
2018-02-19T02:35:02.270Z,30.23
2018-02-19T02:35:33.909Z,29.23
2018-02-19T02:36:05.534Z,29.20
2018-02-19T02:36:37.157Z,29.40
2018-02-19T02:37:08.784Z,28.52
2018-02-19T02:37:40.473Z,28.80
2018-02-19T02:38:12.084Z,29.05
2018-02-19T02:38:43.722Z,29.30
2018-02-19T02:39:15.353Z,29.30
2018-02-19T02:39:46.973Z,27.45
2018-02-19T02:40:18.597Z,29.16
2018-02-19T02:40:50.233Z,30.17
2018-02-19T02:41:21.867Z,28.98
2018-02-19T02:41:53.494Z,30.33
2018-02-19T02:42:25.136Z,28.80
2018-02-19T02:42:56.753Z,29.75
2018-02-19T02:43:28.382Z,29.45
2018-02-19T02:44:00.016Z,28.50
2018-02-19T02:44:31.666Z,28.20
2018-02-19T02:45:03.317Z,29.50
2018-02-19T02:45:34.942Z,30.40
2018-02-19T02:46:06.569Z,31.55
2018-02-19T02:46:38.245Z,29.08
2018-02-19T02:47:09.884Z,28.45
2018-02-19T02:47:41.514Z,29.05
2018-02-19T02:48:13.139Z,29.33
2018-02-19T02:48:44.770Z,28.92
2018-02-19T02:49:16.429Z,28.58
2018-02-19T02:49:48.089Z,26.67
2018-02-19T02:50:19.729Z,30.55
2018-02-19T02:50:51.361Z,28.80
2018-02-19T02:51:23.007Z,29.23
2018-02-19T02:51:54.644Z,27.77
2018-02-19T02:52:26.276Z,27.25
2018-02-19T02:52:57.881Z,28.77
2018-02-19T02:53:29.514Z,27.00
2018-02-19T02:54:01.153Z,28.33
2018-02-19T02:54:32.770Z,28.73
2018-02-19T02:55:04.391Z,26.60
2018-02-19T02:55:36.016Z,28.67
2018-02-19T02:56:07.660Z,28.17
2018-02-19T02:56:39.308Z,29.10
2018-02-19T02:57:10.953Z,27.50
2018-02-19T02:57:42.589Z,27.17
2018-02-19T02:58:14.214Z,27.85
2018-02-19T02:58:45.829Z,27.17
2018-02-19T02:59:17.447Z,26.80
2018-02-19T02:59:49.051Z,27.25
2018-02-19T03:00:20.693Z,27.42
2018-02-19T03:00:52.339Z,28.17
2018-02-19T03:01:23.975Z,26.85
2018-02-19T03:01:55.599Z,28.35
2018-02-19T03:02:27.247Z,27.37
2018-02-19T03:02:58.876Z,27.02
2018-02-19T03:03:30.545Z,26.30
2018-02-19T03:04:02.186Z,26.52
2018-02-19T03:04:33.836Z,26.45
2018-02-19T03:05:05.448Z,27.87
2018-02-19T03:05:37.065Z,26.77
2018-02-19T03:06:08.704Z,28.65
2018-02-19T03:06:40.369Z,28.23
2018-02-19T03:07:12.011Z,26.83
2018-02-19T03:07:43.642Z,31.02
2018-02-19T03:08:15.256Z,25.90
2018-02-19T03:08:46.878Z,25.35
2018-02-19T03:09:18.517Z,27.90
2018-02-19T03:09:50.174Z,27.82
2018-02-19T03:10:21.828Z,28.10
2018-02-19T03:10:53.449Z,27.33
2018-02-19T03:11:25.070Z,25.60
2018-02-19T03:11:56.699Z,26.30
2018-02-19T03:12:28.315Z,25.30
2018-02-19T03:12:59.942Z,24.58
2018-02-19T03:13:31.549Z,26.75
2018-02-19T03:14:03.200Z,25.52
2018-02-19T03:14:34.829Z,25.88
2018-02-19T03:15:06.467Z,24.48
2018-02-19T03:15:38.109Z,25.10
2018-02-19T03:16:09.729Z,25.48
2018-02-19T03:16:41.384Z,26.25
2018-02-19T03:17:13.009Z,25.83
2018-02-19T03:17:44.639Z,26.05
2018-02-19T03:18:16.257Z,25.17
2018-02-19T03:18:47.890Z,24.00
2018-02-19T03:19:19.492Z,26.15
2018-02-19T03:19:51.118Z,25.52
2018-02-19T03:20:22.728Z,24.90
2018-02-19T03:20:54.351Z,25.80
2018-02-19T03:21:26.004Z,26.75
2018-02-19T03:21:57.636Z,27.48
2018-02-19T03:22:29.273Z,26.17
2018-02-19T03:23:00.895Z,25.15
2018-02-19T03:23:32.501Z,25.23
2018-02-19T03:24:04.130Z,24.17
2018-02-19T03:24:35.739Z,25.23
2018-02-19T03:25:07.374Z,25.40
2018-02-19T03:25:38.998Z,24.77
2018-02-19T03:26:10.605Z,26.00
2018-02-19T03:26:42.255Z,23.08
2018-02-19T03:27:13.893Z,25.85
2018-02-19T03:27:45.517Z,25.15
2018-02-19T03:28:17.140Z,24.55
2018-02-19T03:28:48.760Z,26.12
2018-02-19T03:29:20.359Z,24.50
2018-02-19T03:29:51.969Z,25.17
2018-02-19T03:30:23.592Z,24.25
2018-02-19T03:30:55.218Z,24.48
2018-02-19T03:31:26.834Z,24.40
2018-02-19T03:31:58.425Z,23.73
2018-02-19T03:32:30.069Z,23.08
2018-02-19T03:33:01.694Z,26.92
2018-02-19T03:33:33.338Z,24.50
2018-02-19T03:34:04.976Z,23.00
2018-02-19T03:34:36.904Z,25.45
2018-02-19T03:35:08.535Z,25.85
2018-02-19T03:35:40.154Z,24.48
2018-02-19T03:36:11.762Z,23.73
2018-02-19T03:36:43.416Z,24.67
2018-02-19T03:37:15.058Z,22.70
2018-02-19T03:37:46.709Z,23.65
2018-02-19T03:38:18.321Z,23.95
2018-02-19T03:38:49.951Z,24.70
2018-02-19T03:39:21.607Z,23.70
2018-02-19T03:39:53.244Z,23.60
2018-02-19T03:40:24.888Z,25.83
2018-02-19T03:40:56.558Z,22.13
2018-02-19T03:41:28.178Z,24.15
2018-02-19T03:41:59.844Z,22.55
2018-02-19T03:42:31.481Z,21.50
2018-02-19T03:43:03.149Z,23.33
2018-02-19T03:43:34.752Z,23.98
2018-02-19T03:44:06.379Z,23.90
2018-02-19T03:44:38.017Z,22.83
2018-02-19T03:45:09.655Z,24.42
2018-02-19T03:45:41.297Z,22.92
2018-02-19T03:46:12.918Z,24.20
2018-02-19T03:46:44.520Z,24.35
2018-02-19T03:47:16.139Z,24.33
2018-02-19T03:47:47.755Z,22.50
2018-02-19T03:48:19.377Z,22.77
2018-02-19T03:48:51.017Z,22.98
2018-02-19T03:49:22.640Z,23.42
2018-02-19T03:49:54.297Z,23.83
2018-02-19T03:50:25.924Z,23.45
2018-02-19T03:50:57.552Z,24.77
2018-02-19T03:51:29.195Z,23.62
2018-02-19T03:52:00.824Z,23.08
2018-02-19T03:52:32.443Z,22.55
2018-02-19T03:53:04.077Z,24.98
2018-02-19T03:53:35.709Z,23.87
2018-02-19T03:54:07.319Z,24.73
2018-02-19T03:54:38.952Z,23.62
2018-02-19T03:55:10.581Z,23.40
2018-02-19T03:55:42.268Z,23.50
2018-02-19T03:56:13.849Z,23.67
2018-02-19T03:56:45.464Z,24.55
2018-02-19T03:57:17.105Z,22.92
2018-02-19T03:57:48.714Z,24.48
2018-02-19T03:58:20.334Z,23.98
2018-02-19T03:58:51.953Z,23.02
2018-02-19T03:59:23.582Z,21.92
2018-02-19T03:59:55.197Z,23.12
2018-02-19T04:00:26.851Z,22.92
2018-02-19T04:00:58.478Z,23.23
2018-02-19T04:01:30.105Z,22.52
2018-02-19T04:02:01.739Z,23.98
2018-02-19T04:02:33.396Z,23.08
2018-02-19T04:03:05.037Z,22.73
2018-02-19T04:03:36.690Z,24.05
2018-02-19T04:04:08.315Z,22.35
2018-02-19T04:04:39.938Z,21.60
2018-02-19T04:05:11.571Z,22.55
2018-02-19T04:05:43.189Z,24.40
2018-02-19T04:06:14.796Z,23.33
2018-02-19T04:06:46.437Z,22.98
2018-02-19T04:07:18.104Z,22.98
2018-02-19T04:07:49.737Z,22.10
2018-02-19T04:08:21.359Z,23.45
2018-02-19T04:08:52.975Z,23.25
2018-02-19T04:09:24.617Z,23.87
2018-02-19T04:09:56.251Z,23.05
2018-02-19T04:10:27.894Z,23.23
2018-02-19T04:10:59.509Z,22.00
2018-02-19T04:11:31.114Z,23.52
2018-02-19T04:12:02.779Z,22.35
2018-02-19T04:12:34.397Z,22.83
2018-02-19T04:13:06.037Z,22.50
2018-02-19T04:13:37.651Z,24.90
2018-02-19T04:14:09.252Z,22.55
2018-02-19T04:14:40.880Z,21.52
2018-02-19T04:15:12.553Z,23.90
2018-02-19T04:15:44.168Z,22.95
2018-02-19T04:16:15.789Z,22.33
2018-02-19T04:16:47.435Z,22.48
2018-02-19T04:17:19.041Z,22.73
2018-02-19T04:17:50.682Z,23.73
2018-02-19T04:18:22.305Z,22.25
2018-02-19T04:18:53.942Z,22.95
2018-02-19T04:19:26.947Z,23.00
2018-02-19T04:19:58.591Z,22.02
2018-02-19T04:20:30.236Z,23.25
2018-02-19T04:21:01.874Z,21.50
2018-02-19T04:21:33.505Z,22.10
2018-02-19T04:22:05.123Z,22.87
2018-02-19T04:22:36.801Z,22.77
2018-02-19T04:23:08.426Z,23.95
2018-02-19T04:23:40.077Z,22.58
2018-02-19T04:24:11.704Z,22.95
2018-02-19T04:24:43.346Z,23.85
2018-02-19T04:25:14.983Z,21.95
2018-02-19T04:25:46.593Z,23.38
2018-02-19T04:26:18.221Z,22.45
2018-02-19T04:26:49.847Z,22.65
2018-02-19T04:27:21.496Z,23.27
2018-02-19T04:27:53.136Z,23.10
2018-02-19T04:28:24.775Z,22.00
2018-02-19T04:28:56.390Z,22.20
2018-02-19T04:29:28.018Z,21.37
2018-02-19T04:29:59.639Z,22.55
2018-02-19T04:30:31.268Z,23.33
2018-02-19T04:31:02.911Z,23.58
2018-02-19T04:31:34.563Z,23.75
2018-02-19T04:32:06.190Z,22.98
2018-02-19T04:32:37.847Z,22.48
2018-02-19T04:33:09.486Z,21.48
2018-02-19T04:33:41.113Z,22.10
2018-02-19T04:34:12.733Z,22.15
2018-02-19T04:34:44.341Z,22.80
2018-02-19T04:35:15.976Z,22.10
2018-02-19T04:35:47.619Z,24.42
2018-02-19T04:36:19.266Z,23.67
2018-02-19T04:36:50.909Z,22.60
2018-02-19T04:37:22.562Z,21.75
2018-02-19T04:37:54.209Z,23.70
2018-02-19T04:38:25.829Z,22.55
2018-02-19T04:38:57.459Z,21.92
2018-02-19T04:39:29.125Z,22.67
2018-02-19T04:40:00.748Z,23.33
2018-02-19T04:40:32.364Z,21.77
2018-02-19T04:41:04.000Z,22.50
2018-02-19T04:41:35.641Z,23.80
2018-02-19T04:42:07.291Z,23.48
2018-02-19T04:42:38.950Z,22.67
2018-02-19T04:43:10.632Z,23.35
2018-02-19T04:43:42.280Z,22.10
2018-02-19T04:44:13.956Z,24.33
2018-02-19T04:44:48.513Z,22.40
2018-02-19T04:46:35.336Z,22.08
2018-02-19T04:47:06.999Z,22.90
2018-02-19T04:47:38.632Z,23.45
2018-02-19T04:48:10.265Z,21.65
2018-02-19T04:48:41.904Z,22.90
2018-02-19T04:49:13.537Z,22.35
2018-02-19T04:49:45.163Z,23.33
2018-02-19T04:50:16.795Z,21.77
2018-02-19T04:50:48.447Z,22.30
2018-02-19T04:51:20.085Z,23.30
2018-02-19T04:51:51.981Z,23.00
2018-02-19T04:52:23.588Z,22.55
2018-02-19T04:52:55.216Z,23.52
2018-02-19T04:53:26.839Z,23.17
2018-02-19T04:53:58.460Z,22.60
2018-02-19T04:54:30.125Z,22.92
2018-02-19T04:55:01.759Z,22.85
2018-02-19T04:55:33.376Z,23.75
2018-02-19T04:56:04.997Z,22.55
2018-02-19T04:56:36.629Z,24.40
2018-02-19T04:57:08.250Z,23.58
2018-02-19T04:57:39.862Z,24.02
2018-02-19T04:58:11.501Z,23.45
2018-02-19T04:58:43.123Z,23.70
2018-02-19T04:59:14.769Z,24.17
2018-02-19T04:59:46.397Z,23.35
2018-02-19T05:00:18.299Z,23.65
2018-02-19T05:00:49.942Z,23.48
2018-02-19T05:01:21.572Z,23.80
2018-02-19T05:01:53.233Z,23.96
2018-02-19T05:02:24.881Z,23.05
2018-02-19T05:02:56.501Z,25.17
2018-02-19T05:03:28.136Z,23.73
2018-02-19T05:03:59.763Z,23.05
2018-02-19T05:04:31.385Z,23.15
2018-02-19T05:05:03.026Z,23.08
2018-02-19T05:05:34.652Z,23.58
2018-02-19T05:06:06.279Z,24.60
2018-02-19T05:06:37.913Z,22.75
2018-02-19T05:07:09.526Z,22.75
2018-02-19T05:07:41.141Z,24.55
2018-02-19T05:08:12.757Z,23.50
2018-02-19T05:08:44.413Z,23.55
2018-02-19T05:09:16.017Z,23.70
2018-02-19T05:09:47.664Z,23.35
2018-02-19T05:10:19.281Z,23.00
2018-02-19T05:10:50.923Z,22.90
2018-02-19T05:11:22.551Z,24.27
2018-02-19T05:11:54.157Z,23.23
2018-02-19T05:12:25.781Z,22.42
2018-02-19T05:12:57.430Z,24.80
2018-02-19T05:13:29.063Z,20.08
2018-02-19T05:14:00.743Z,22.92
2018-02-19T05:14:32.341Z,23.62
2018-02-19T05:15:03.962Z,23.92
2018-02-19T05:15:35.633Z,24.40
2018-02-19T05:16:07.265Z,24.55
2018-02-19T05:16:38.887Z,24.15
2018-02-19T05:17:10.509Z,24.25
2018-02-19T05:17:42.165Z,22.08
2018-02-19T05:18:13.789Z,23.48
2018-02-19T05:18:45.426Z,22.35
2018-02-19T05:19:17.061Z,21.27
2018-02-19T05:19:48.685Z,21.52
2018-02-19T05:20:20.322Z,22.62
2018-02-19T05:20:51.976Z,22.45
2018-02-19T05:21:23.604Z,24.87
2018-02-19T05:21:55.233Z,24.00
2018-02-19T05:22:26.850Z,24.63
2018-02-19T05:22:58.541Z,24.52
2018-02-19T05:23:30.171Z,25.08
2018-02-19T05:24:01.806Z,23.65
2018-02-19T05:24:33.460Z,21.87
2018-02-19T05:25:05.087Z,24.12
2018-02-19T05:25:36.723Z,23.20
2018-02-19T05:26:08.338Z,23.05
2018-02-19T05:26:39.985Z,23.33
2018-02-19T05:27:11.607Z,22.50
2018-02-19T05:27:43.217Z,21.67
2018-02-19T05:28:14.842Z,22.40
2018-02-19T05:28:46.487Z,23.85
2018-02-19T05:29:18.121Z,23.58
2018-02-19T05:29:49.750Z,21.70
2018-02-19T05:30:21.376Z,22.23
2018-02-19T05:30:53.015Z,22.70
2018-02-19T05:31:24.632Z,22.25
2018-02-19T05:31:56.277Z,22.62
2018-02-19T05:32:28.232Z,22.48
2018-02-19T05:32:59.852Z,23.33
2018-02-19T05:33:31.481Z,23.17
2018-02-19T05:34:03.141Z,22.30
2018-02-19T05:34:34.771Z,22.13
2018-02-19T05:35:06.412Z,21.92
2018-02-19T05:35:38.049Z,22.67
2018-02-19T05:36:09.674Z,22.33
2018-02-19T05:36:41.273Z,22.10
2018-02-19T05:37:12.905Z,23.83
2018-02-19T05:37:44.556Z,22.52
2018-02-19T05:38:16.214Z,21.80
2018-02-19T05:38:47.849Z,21.87
2018-02-19T05:39:19.467Z,23.35
2018-02-19T05:39:51.089Z,21.98
2018-02-19T05:40:22.734Z,21.90
2018-02-19T05:40:54.369Z,22.90
2018-02-19T05:41:26.011Z,22.27
2018-02-19T05:41:57.653Z,22.67
2018-02-19T05:42:29.296Z,22.52
2018-02-19T05:43:00.910Z,22.42
2018-02-19T05:43:32.541Z,22.92
2018-02-19T05:44:04.152Z,23.83
2018-02-19T05:44:35.787Z,22.00
2018-02-19T05:45:07.414Z,22.98
2018-02-19T05:45:39.048Z,22.48
2018-02-19T05:46:10.653Z,23.77
2018-02-19T05:46:42.317Z,23.98
2018-02-19T05:47:13.937Z,22.55
2018-02-19T05:47:45.574Z,23.95
2018-02-19T05:48:17.224Z,22.52
2018-02-19T05:48:48.846Z,23.08
2018-02-19T05:49:20.459Z,23.27
2018-02-19T05:49:52.105Z,22.80
2018-02-19T05:50:23.729Z,22.87
2018-02-19T05:50:55.373Z,21.80
2018-02-19T05:51:27.016Z,22.37
2018-02-19T05:51:58.646Z,21.45
2018-02-19T05:52:30.289Z,22.27
2018-02-19T05:53:01.911Z,22.92
2018-02-19T05:53:33.539Z,22.00
2018-02-19T05:54:05.166Z,23.60
2018-02-19T05:54:36.806Z,22.98
2018-02-19T05:55:08.423Z,22.70
2018-02-19T05:55:40.032Z,21.75
2018-02-19T05:56:11.663Z,22.65
2018-02-19T05:56:43.310Z,22.75
2018-02-19T05:57:14.949Z,23.40
2018-02-19T05:57:46.558Z,23.17
2018-02-19T05:58:18.227Z,23.40
2018-02-19T05:58:49.886Z,21.28
2018-02-19T05:59:21.523Z,22.13
2018-02-19T05:59:53.193Z,23.48
2018-02-19T06:00:25.686Z,22.42
2018-02-19T06:00:57.851Z,23.38
2018-02-19T06:01:29.681Z,22.67
2018-02-19T06:02:01.303Z,23.67
2018-02-19T06:02:32.922Z,22.80
2018-02-19T06:03:04.543Z,22.27
2018-02-19T06:03:36.185Z,22.10
2018-02-19T06:04:07.855Z,21.52
2018-02-19T06:04:39.476Z,23.30
2018-02-19T06:05:11.089Z,23.42
2018-02-19T06:05:42.716Z,22.20
2018-02-19T06:06:14.678Z,22.30
2018-02-19T06:06:46.400Z,22.65
2018-02-19T06:07:18.010Z,24.37
2018-02-19T06:07:49.638Z,23.55
2018-02-19T06:08:21.280Z,21.75
2018-02-19T06:08:52.897Z,22.90
2018-02-19T06:09:24.500Z,23.30
2018-02-19T06:09:56.132Z,22.85
2018-02-19T06:10:27.752Z,23.02
2018-02-19T06:10:59.406Z,23.20
2018-02-19T06:11:31.047Z,23.33
2018-02-19T06:12:02.733Z,23.23
2018-02-19T06:12:34.372Z,23.15
2018-02-19T06:13:05.997Z,23.33
2018-02-19T06:13:37.661Z,22.87
2018-02-19T06:14:09.309Z,23.30
2018-02-19T06:14:40.922Z,21.70
2018-02-19T06:15:12.561Z,22.00
2018-02-19T06:15:44.216Z,23.58
2018-02-19T06:16:15.838Z,22.40
2018-02-19T06:16:47.468Z,22.85
2018-02-19T06:17:19.102Z,21.67
2018-02-19T06:17:50.744Z,23.75
2018-02-19T06:18:22.410Z,24.08
2018-02-19T06:18:54.047Z,22.73
2018-02-19T06:19:25.670Z,22.90
2018-02-19T06:19:57.305Z,22.73
2018-02-19T06:20:28.928Z,23.83
2018-02-19T06:21:00.553Z,23.42
2018-02-19T06:21:32.184Z,22.15
2018-02-19T06:22:03.835Z,23.40
2018-02-19T06:22:35.480Z,24.12
2018-02-19T06:23:07.134Z,22.62
2018-02-19T06:23:38.752Z,22.77
2018-02-19T06:24:10.376Z,23.55
2018-02-19T06:24:42.007Z,22.45
2018-02-19T06:25:13.678Z,22.95
2018-02-19T06:25:45.311Z,21.85
2018-02-19T06:26:16.924Z,23.40
2018-02-19T06:26:48.561Z,23.42
2018-02-19T06:27:20.193Z,22.98
2018-02-19T06:27:51.837Z,23.92
2018-02-19T06:28:23.472Z,22.62
2018-02-19T06:28:55.099Z,22.48
2018-02-19T06:29:26.732Z,22.30
2018-02-19T06:29:58.442Z,22.90
2018-02-19T06:30:30.093Z,22.75
2018-02-19T06:31:01.724Z,23.90
2018-02-19T06:31:33.349Z,23.40
2018-02-19T06:32:04.956Z,23.35
2018-02-19T06:32:36.582Z,22.23
2018-02-19T06:33:08.235Z,22.65
2018-02-19T06:33:39.892Z,23.48
2018-02-19T06:34:11.528Z,22.73
2018-02-19T06:34:43.549Z,24.30
2018-02-19T06:35:14.812Z,24.42
2018-02-19T06:35:46.458Z,23.23
2018-02-19T06:36:18.109Z,23.58
2018-02-19T06:36:49.733Z,23.00
2018-02-19T06:37:21.369Z,21.52
2018-02-19T06:37:52.992Z,23.10
2018-02-19T06:38:24.638Z,22.98
2018-02-19T06:38:56.283Z,22.42
2018-02-19T06:39:27.900Z,23.38
2018-02-19T06:39:59.537Z,22.10
2018-02-19T06:40:31.160Z,23.33
2018-02-19T06:41:02.782Z,23.65
2018-02-19T06:41:34.395Z,22.08
2018-02-19T06:42:06.035Z,23.48
2018-02-19T06:42:37.702Z,22.95
2018-02-19T06:43:09.312Z,24.65
2018-02-19T06:43:40.942Z,22.55
2018-02-19T06:44:12.571Z,22.65
2018-02-19T06:44:44.195Z,22.83
2018-02-19T06:45:15.815Z,22.73
2018-02-19T06:45:47.451Z,22.73
2018-02-19T06:46:19.089Z,23.33
2018-02-19T06:46:50.726Z,23.08
2018-02-19T06:47:22.355Z,23.77
2018-02-19T06:47:53.983Z,23.45
2018-02-19T06:48:25.607Z,22.92
2018-02-19T06:48:57.250Z,23.83